createdAt,value
2022-09-01T00:01:22.214Z,98900.85
2022-09-01T00:03:49.839Z,98899.30
2022-09-01T00:06:22.553Z,98902.13
2022-09-01T00:08:51.125Z,98903.70
2022-09-01T00:11:18.781Z,98904.11
2022-09-01T00:13:46.135Z,98903.27
2022-09-01T00:16:15.378Z,98899.40
2022-09-01T00:18:46.628Z,98899.23
2022-09-01T00:21:14.301Z,98898.72
2022-09-01T00:23:41.136Z,98896.04
2022-09-01T00:26:07.990Z,98898.36
2022-09-01T00:28:36.471Z,98899.97
2022-09-01T00:31:04.784Z,98898.40
2022-09-01T00:33:32.547Z,98898.00
2022-09-01T00:36:00.036Z,98897.11
2022-09-01T00:38:27.509Z,98897.29
2022-09-01T00:40:54.998Z,98896.06
2022-09-01T00:43:36.414Z,98893.58
2022-09-01T00:46:05.234Z,98891.61
2022-09-01T00:48:32.666Z,98891.69
2022-09-01T00:51:01.413Z,98887.73
2022-09-01T00:53:28.688Z,98887.48
2022-09-01T00:55:56.877Z,98888.36
2022-09-01T00:58:23.866Z,98889.85
2022-09-01T01:00:54.051Z,98887.02
2022-09-01T01:03:21.649Z,98888.54
2022-09-01T01:05:54.760Z,98887.63
2022-09-01T01:08:37.816Z,98889.59
2022-09-01T01:11:09.537Z,98890.22
2022-09-01T01:13:52.888Z,98888.65
2022-09-01T01:16:19.816Z,98891.23
2022-09-01T01:18:47.254Z,98894.81
2022-09-01T01:21:47.491Z,98892.84
2022-09-01T01:24:30.447Z,98896.70
2022-09-01T01:26:59.840Z,98896.48
2022-09-01T01:29:32.620Z,98896.63
2022-09-01T01:32:00.772Z,98895.30
2022-09-01T01:34:28.881Z,98901.27
2022-09-01T01:37:01.745Z,98900.25
2022-09-01T01:39:28.891Z,98896.41
2022-09-01T01:41:58.840Z,98897.96
2022-09-01T01:44:28.455Z,98896.98
2022-09-01T01:46:59.647Z,98893.27
2022-09-01T01:49:29.177Z,98895.84
2022-09-01T01:51:58.155Z,98892.70
2022-09-01T01:54:32.560Z,98889.27
2022-09-01T01:57:01.163Z,98889.48
2022-09-01T01:59:30.418Z,98884.46
2022-09-01T02:01:58.372Z,98885.79
2022-09-01T02:04:25.565Z,98880.53
2022-09-01T02:06:52.668Z,98876.45
2022-09-01T02:09:23.373Z,98876.48
2022-09-01T02:11:57.200Z,98877.73
2022-09-01T02:14:25.206Z,98874.98
2022-09-01T02:16:53.272Z,98873.16
2022-09-01T02:19:21.071Z,98874.70
2022-09-01T02:21:54.164Z,98876.44
2022-09-01T02:24:24.072Z,98880.39
2022-09-01T02:26:50.925Z,98878.15
2022-09-01T02:29:22.095Z,98873.77
2022-09-01T02:31:52.183Z,98874.20
2022-09-01T02:34:20.864Z,98877.33
2022-09-01T02:36:51.900Z,98877.27
2022-09-01T02:39:26.019Z,98866.40
2022-09-01T02:41:53.987Z,98875.60
2022-09-01T02:44:24.597Z,98872.89
2022-09-01T02:46:51.595Z,98869.65
2022-09-01T02:49:25.929Z,98868.43
2022-09-01T02:51:54.415Z,98869.96
2022-09-01T02:54:24.687Z,98868.41
2022-09-01T02:56:54.614Z,98866.71
2022-09-01T02:59:26.440Z,98862.02
2022-09-01T03:01:54.770Z,98864.73
2022-09-01T03:04:24.036Z,98869.60
2022-09-01T03:06:54.896Z,98870.80
2022-09-01T03:09:22.700Z,98868.83
2022-09-01T03:11:51.848Z,98871.91
2022-09-01T03:14:20.042Z,98865.65
2022-09-01T03:16:47.285Z,98869.44
2022-09-01T03:19:15.219Z,98866.48
2022-09-01T03:21:44.713Z,98866.17
2022-09-01T03:24:15.310Z,98867.75
2022-09-01T03:26:43.878Z,98870.23
2022-09-01T03:29:12.203Z,98873.88
2022-09-01T03:31:39.333Z,98873.65
2022-09-01T03:34:06.803Z,98873.10
2022-09-01T03:36:40.124Z,98875.07
2022-09-01T03:39:14.575Z,98878.60
2022-09-01T03:41:44.968Z,98876.63
2022-09-01T03:44:15.305Z,98877.39
2022-09-01T03:46:43.689Z,98880.32
2022-09-01T03:49:15.259Z,98879.58
2022-09-01T03:51:45.181Z,98876.92
2022-09-01T03:54:12.564Z,98879.91
2022-09-01T03:56:41.509Z,98881.73
2022-09-01T03:59:17.378Z,98883.41
2022-09-01T04:01:46.672Z,98883.29
2022-09-01T04:04:15.267Z,98880.98
2022-09-01T04:06:44.246Z,98881.41
2022-09-01T04:09:11.998Z,98887.98
2022-09-01T04:11:45.744Z,98890.23
2022-09-01T04:14:15.110Z,98894.39
2022-09-01T04:16:59.931Z,98896.83
2022-09-01T04:19:27.143Z,98896.70
2022-09-01T04:22:00.263Z,98899.80
2022-09-01T04:24:32.599Z,98897.23
2022-09-01T04:27:02.471Z,98896.99
2022-09-01T04:29:32.045Z,98897.33
2022-09-01T04:32:05.742Z,98901.73
2022-09-01T04:34:37.969Z,98903.85
2022-09-01T04:37:15.052Z,98903.58
2022-09-01T04:39:53.716Z,98906.92
2022-09-01T04:42:24.350Z,98900.81
2022-09-01T04:44:54.050Z,98909.59
2022-09-01T04:47:35.200Z,98907.80
2022-09-01T04:50:14.356Z,98909.32
2022-09-01T04:52:45.640Z,98910.40
2022-09-01T04:55:24.911Z,98914.39
2022-09-01T04:57:52.440Z,98907.85
2022-09-01T05:00:22.971Z,98909.83
2022-09-01T05:02:53.444Z,98910.48
2022-09-01T05:05:23.456Z,98910.44
2022-09-01T05:07:54.619Z,98909.40
2022-09-01T05:10:29.338Z,98907.59
2022-09-01T05:13:13.872Z,98907.63
2022-09-01T05:15:46.868Z,98903.93
2022-09-01T05:18:28.194Z,98901.81
2022-09-01T05:20:57.675Z,98897.19
2022-09-01T05:23:26.813Z,98895.23
2022-09-01T05:25:55.012Z,98894.98
2022-09-01T05:28:27.139Z,98895.29
2022-09-01T05:30:55.021Z,98897.55
2022-09-01T05:33:22.635Z,98898.36
2022-09-01T05:35:56.659Z,98890.34
2022-09-01T05:38:25.805Z,98901.45
2022-09-01T05:41:03.247Z,98898.48
2022-09-01T05:43:31.812Z,98897.15
2022-09-01T05:46:06.699Z,98895.59
2022-09-01T05:48:39.964Z,98894.58
2022-09-01T05:51:22.329Z,98894.59
2022-09-01T05:53:51.558Z,98895.96
2022-09-01T05:56:20.182Z,98896.86
2022-09-01T06:01:38.743Z,98893.83
2022-09-01T06:04:06.606Z,98895.02
2022-09-01T06:07:01.700Z,98895.52
2022-09-01T06:09:28.558Z,98899.14
2022-09-01T06:11:58.501Z,98899.06
2022-09-01T06:14:25.449Z,98905.37
2022-09-01T06:16:54.253Z,98909.70
2022-09-01T06:19:21.846Z,98907.87
2022-09-01T06:21:49.033Z,98912.15
2022-09-01T06:24:16.059Z,98907.95
2022-09-01T06:26:44.129Z,98909.88
2022-09-01T06:29:15.666Z,98912.08
2022-09-01T06:31:51.917Z,98912.33
2022-09-01T06:34:19.964Z,98916.55
2022-09-01T06:36:50.382Z,98913.66
2022-09-01T06:39:20.849Z,98908.26
2022-09-01T06:41:53.351Z,98912.40
2022-09-01T06:44:24.738Z,98918.08
2022-09-01T06:47:00.104Z,98915.97
2022-09-01T06:49:33.282Z,98920.14
2022-09-01T06:52:02.907Z,98922.63
2022-09-01T06:54:34.176Z,98924.80
2022-09-01T06:59:52.553Z,98930.91
2022-09-01T07:02:30.435Z,98931.11
2022-09-01T07:08:14.426Z,98931.63
2022-09-01T07:16:52.032Z,98938.10
2022-09-01T07:19:20.772Z,98931.00
2022-09-01T07:22:09.496Z,98927.60
2022-09-01T07:24:40.295Z,98926.96
2022-09-01T07:27:26.928Z,98924.73
2022-09-01T07:30:03.568Z,98925.54
2022-09-01T07:32:47.291Z,98927.91
2022-09-01T07:35:20.083Z,98928.46
2022-09-01T07:38:48.422Z,98932.79
2022-09-01T07:43:45.717Z,98931.34
2022-09-01T07:46:40.531Z,98928.54
2022-09-01T07:52:01.756Z,98925.24
2022-09-01T07:54:29.938Z,98929.28
2022-09-01T07:56:57.220Z,98926.83
2022-09-01T07:59:24.284Z,98930.09
2022-09-01T08:01:57.395Z,98924.65
2022-09-01T08:04:24.919Z,98922.71
2022-09-01T08:06:52.301Z,98920.38
2022-09-01T08:09:27.350Z,98919.73
2022-09-01T08:12:07.550Z,98921.09
2022-09-01T08:14:38.572Z,98917.36
2022-09-01T08:19:53.786Z,98918.64
2022-09-01T08:22:38.310Z,98918.58
2022-09-01T08:25:16.772Z,98922.17
2022-09-01T08:27:43.926Z,98915.98
2022-09-01T08:30:13.330Z,98916.90
2022-09-01T08:32:42.363Z,98920.23
2022-09-01T08:35:11.669Z,98918.71
2022-09-01T08:37:40.261Z,98919.36
2022-09-01T08:40:09.003Z,98920.98
2022-09-01T08:42:59.154Z,98918.31
2022-09-01T08:45:46.032Z,98913.23
2022-09-01T08:51:44.743Z,98914.35
2022-09-01T08:54:29.736Z,98916.20
2022-09-01T08:57:08.819Z,98912.13
2022-09-01T08:59:53.438Z,98912.23
2022-09-01T09:03:02.615Z,98914.36
2022-09-01T09:05:32.249Z,98913.39
2022-09-01T09:08:08.183Z,98911.86
2022-09-01T09:10:37.871Z,98912.02
2022-09-01T09:13:13.517Z,98913.35
2022-09-01T09:15:47.661Z,98909.86
2022-09-01T09:18:39.100Z,98904.89
2022-09-01T09:21:16.960Z,98900.11
2022-09-01T09:23:50.928Z,98899.27
2022-09-01T09:26:22.345Z,98904.63
2022-09-01T09:28:50.138Z,98904.94
2022-09-01T09:31:36.550Z,98907.80
2022-09-01T09:34:04.121Z,98906.70
2022-09-01T09:36:37.004Z,98903.98
2022-09-01T09:39:08.113Z,98904.63
2022-09-01T09:41:36.206Z,98898.84
2022-09-01T09:44:14.821Z,98902.99
2022-09-01T09:46:44.108Z,98898.98
2022-09-01T09:49:21.666Z,98900.41
2022-09-01T09:52:05.325Z,98896.49
2022-09-01T09:54:34.981Z,98896.41
2022-09-01T09:57:18.737Z,98897.58
2022-09-01T09:59:59.358Z,98894.71
2022-09-01T10:02:45.278Z,98894.56
2022-09-01T10:05:36.447Z,98891.75
2022-09-01T10:08:06.382Z,98892.33
2022-09-01T10:10:57.887Z,98897.58
2022-09-01T10:13:32.542Z,98899.98
2022-09-01T10:16:03.754Z,98901.17
2022-09-01T10:18:39.894Z,98894.59
2022-09-01T10:21:17.384Z,98892.20
2022-09-01T10:23:44.939Z,98892.02
2022-09-01T10:26:18.874Z,98882.41
2022-09-01T10:28:54.927Z,98890.35
2022-09-01T10:31:22.540Z,98890.44
2022-09-01T10:33:51.122Z,98892.84
2022-09-01T10:36:20.001Z,98889.55
2022-09-01T10:38:53.556Z,98891.21
2022-09-01T10:41:59.901Z,98892.20
2022-09-01T10:44:34.011Z,98889.05
2022-09-01T10:47:13.610Z,98887.41
2022-09-01T10:49:46.736Z,98888.01
2022-09-01T10:52:43.412Z,98885.80
2022-09-01T10:55:32.626Z,98882.05
2022-09-01T11:01:11.105Z,98873.00
2022-09-01T11:03:51.682Z,98877.59
2022-09-01T11:09:38.299Z,98869.79
2022-09-01T11:12:29.894Z,98876.67
2022-09-01T11:15:00.952Z,98867.10
2022-09-01T11:17:33.092Z,98873.34
2022-09-01T11:20:09.316Z,98878.30
2022-09-01T11:22:39.825Z,98872.29
2022-09-01T11:25:12.511Z,98870.95
2022-09-01T11:27:57.200Z,98863.73
2022-09-01T11:30:36.679Z,98867.80
2022-09-01T11:33:24.150Z,98862.45
2022-09-01T11:36:00.903Z,98865.53
2022-09-01T11:38:31.948Z,98863.14
2022-09-01T11:40:58.908Z,98861.21
2022-09-01T11:43:27.397Z,98859.45
2022-09-01T11:46:17.807Z,98860.05
2022-09-01T11:48:51.791Z,98848.41
2022-09-01T11:51:21.511Z,98852.25
2022-09-01T11:53:50.693Z,98848.56
2022-09-01T11:56:24.776Z,98847.88
2022-09-01T11:58:51.988Z,98851.85
2022-09-01T12:01:24.023Z,98855.98
2022-09-01T12:03:53.289Z,98854.83
2022-09-01T12:06:24.617Z,98854.55
2022-09-01T12:09:02.468Z,98844.47
2022-09-01T12:11:32.753Z,98847.58
2022-09-01T12:14:04.705Z,98844.19
2022-09-01T12:16:42.561Z,98842.41
2022-09-01T12:19:23.673Z,98839.55
2022-09-01T12:22:01.875Z,98840.00
2022-09-01T12:24:34.031Z,98836.21
2022-09-01T12:27:02.016Z,98835.14
2022-09-01T12:29:32.218Z,98835.30
2022-09-01T12:32:00.214Z,98834.73
2022-09-01T12:34:36.124Z,98830.30
2022-09-01T12:37:10.992Z,98832.61
2022-09-01T12:39:40.025Z,98828.96
2022-09-01T12:42:10.961Z,98827.28
2022-09-01T12:44:40.104Z,98828.09
2022-09-01T12:47:10.722Z,98824.58
2022-09-01T12:49:45.253Z,98829.77
2022-09-01T12:52:19.933Z,98837.48
2022-09-01T12:54:50.088Z,98838.20
2022-09-01T12:57:45.401Z,98838.20
2022-09-01T13:00:15.381Z,98835.62
2022-09-01T13:02:46.250Z,98832.55
2022-09-01T13:05:39.476Z,98832.77
2022-09-01T13:08:13.979Z,98832.34
2022-09-01T13:10:44.212Z,98833.41
2022-09-01T13:13:12.556Z,98827.88
2022-09-01T13:15:43.011Z,98828.09
2022-09-01T13:18:10.759Z,98821.23
2022-09-01T13:20:38.534Z,98820.92
2022-09-01T13:23:05.457Z,98820.65
2022-09-01T13:25:32.280Z,98816.86
2022-09-01T13:28:01.616Z,98817.75
2022-09-01T13:30:30.038Z,98819.00
2022-09-01T13:35:44.873Z,98826.70
2022-09-01T13:38:11.933Z,98823.33
2022-09-01T13:40:38.788Z,98822.20
2022-09-01T13:43:06.293Z,98817.32
2022-09-01T13:45:33.574Z,98815.58
2022-09-01T13:48:17.341Z,98816.91
2022-09-01T13:53:36.658Z,98820.35
2022-09-01T13:56:03.903Z,98822.08
2022-09-01T13:58:30.754Z,98817.64
2022-09-01T14:00:59.618Z,98823.77
2022-09-01T14:03:26.579Z,98824.68
2022-09-01T14:05:54.053Z,98823.40
2022-09-01T14:08:22.860Z,98822.52
2022-09-01T14:10:52.624Z,98822.73
2022-09-01T14:13:21.596Z,98822.64
2022-09-01T14:15:49.395Z,98821.45
2022-09-01T14:18:17.302Z,98815.21
2022-09-01T14:20:47.032Z,98816.13
2022-09-01T14:23:15.349Z,98813.20
2022-09-01T14:25:45.548Z,98819.29
2022-09-01T14:28:13.332Z,98821.58
2022-09-01T14:30:43.111Z,98819.54
2022-09-01T14:33:11.394Z,98816.98
2022-09-01T14:35:42.194Z,98818.73
2022-09-01T14:38:10.290Z,98814.97
2022-09-01T14:40:38.806Z,98817.77
2022-09-01T14:43:09.841Z,98816.44
2022-09-01T14:45:37.869Z,98814.20
2022-09-01T14:48:05.867Z,98813.91
2022-09-01T14:50:34.115Z,98809.85
2022-09-01T14:53:02.946Z,98803.66
2022-09-01T14:55:31.998Z,98804.52
2022-09-01T14:58:00.466Z,98808.89
2022-09-01T15:00:28.005Z,98806.83
2022-09-01T15:02:56.083Z,98814.11
2022-09-01T15:05:23.872Z,98816.94
2022-09-01T15:07:51.901Z,98817.20
2022-09-01T15:10:25.388Z,98813.20
2022-09-01T15:12:55.192Z,98812.42
2022-09-01T15:15:23.058Z,98814.89
2022-09-01T15:17:50.102Z,98819.62
2022-09-01T15:20:32.513Z,98819.27
2022-09-01T15:22:59.433Z,98820.48
2022-09-01T15:25:26.650Z,98820.38
2022-09-01T15:27:53.588Z,98820.59
2022-09-01T15:30:21.792Z,98821.48
2022-09-01T15:32:52.580Z,98819.50
2022-09-01T15:35:20.427Z,98817.88
2022-09-01T15:37:49.468Z,98818.29
2022-09-01T15:40:17.385Z,98814.87
2022-09-01T15:42:44.974Z,98821.39
2022-09-01T15:45:16.656Z,98820.55
2022-09-01T15:47:45.886Z,98819.85
2022-09-01T15:50:16.926Z,98826.87
2022-09-01T15:52:51.547Z,98826.46
2022-09-01T15:55:23.255Z,98827.23
2022-09-01T15:57:51.113Z,98829.11
2022-09-01T16:00:18.904Z,98827.96
2022-09-01T16:02:45.958Z,98828.17
2022-09-01T16:05:13.255Z,98831.22
2022-09-01T16:07:41.173Z,98832.04
2022-09-01T16:10:12.405Z,98831.98
2022-09-01T16:12:44.091Z,98839.61
2022-09-01T16:15:14.480Z,98841.31
2022-09-01T16:18:04.605Z,98840.20
2022-09-01T16:20:42.085Z,98843.45
2022-09-01T16:23:09.995Z,98842.70
2022-09-01T16:25:36.823Z,98842.90
2022-09-01T16:28:18.964Z,98845.60
2022-09-01T16:30:49.140Z,98845.00
2022-09-01T16:33:23.216Z,98848.05
2022-09-01T16:36:00.935Z,98849.42
2022-09-01T16:38:35.083Z,98847.73
2022-09-01T16:41:19.085Z,98850.71
2022-09-01T16:44:00.403Z,98846.42
2022-09-01T16:46:33.183Z,98850.85
2022-09-01T16:49:03.406Z,98850.52
2022-09-01T16:51:39.360Z,98852.38
2022-09-01T16:54:21.166Z,98851.06
2022-09-01T16:57:07.169Z,98850.38
2022-09-01T16:59:53.339Z,98852.63
2022-09-01T17:02:35.820Z,98857.45
2022-09-01T17:05:14.856Z,98857.79
2022-09-01T17:07:53.809Z,98865.45
2022-09-01T17:10:33.669Z,98865.84
2022-09-01T17:13:16.503Z,98870.14
2022-09-01T17:15:48.290Z,98876.05
2022-09-01T17:18:35.416Z,98875.20
2022-09-01T17:21:11.156Z,98878.11
2022-09-01T17:23:44.958Z,98881.84
2022-09-01T17:26:21.163Z,98877.42
2022-09-01T17:29:10.349Z,98876.44
2022-09-01T17:31:42.334Z,98882.55
2022-09-01T17:34:14.326Z,98883.95
2022-09-01T17:36:46.838Z,98883.27
2022-09-01T17:39:28.872Z,98887.98
2022-09-01T17:42:02.120Z,98894.35
2022-09-01T17:44:39.375Z,98891.60
2022-09-01T17:47:25.925Z,98898.04
2022-09-01T17:50:13.601Z,98893.92
2022-09-01T17:52:47.481Z,98899.86
2022-09-01T17:55:36.564Z,98902.69
2022-09-01T17:58:23.284Z,98905.06
2022-09-01T18:01:09.909Z,98905.20
2022-09-01T18:04:06.021Z,98905.89
2022-09-01T18:07:09.850Z,98904.31
2022-09-01T18:09:45.051Z,98912.73
2022-09-01T18:12:17.468Z,98917.05
2022-09-01T18:14:48.329Z,98919.67
2022-09-01T18:17:25.127Z,98923.92
2022-09-01T18:20:12.909Z,98923.45
2022-09-01T18:22:46.966Z,98930.10
2022-09-01T18:25:19.811Z,98928.66
2022-09-01T18:27:48.144Z,98931.30
2022-09-01T18:30:26.197Z,98936.15
2022-09-01T18:33:10.339Z,98933.45
2022-09-01T18:35:52.845Z,98935.47
2022-09-01T18:38:24.672Z,98933.74
2022-09-01T18:40:56.330Z,98935.78
2022-09-01T18:43:33.826Z,98938.27
2022-09-01T18:46:11.155Z,98937.32
2022-09-01T18:49:09.503Z,98935.34
2022-09-01T18:51:43.592Z,98939.47
2022-09-01T18:54:18.014Z,98942.71
2022-09-01T18:56:49.491Z,98942.09
2022-09-01T18:59:47.970Z,98943.20
2022-09-01T19:02:23.419Z,98942.17
2022-09-01T19:04:57.988Z,98946.48
2022-09-01T19:07:40.233Z,98945.35
2022-09-01T19:10:18.356Z,98948.48
2022-09-01T19:12:54.400Z,98950.38
2022-09-01T19:15:27.124Z,98951.65
2022-09-01T19:18:04.351Z,98950.70
2022-09-01T19:20:41.266Z,98956.64
2022-09-01T19:23:20.185Z,98958.49
2022-09-01T19:25:48.382Z,98962.78
2022-09-01T19:28:29.451Z,98962.81
2022-09-01T19:31:04.979Z,98968.01
2022-09-01T19:33:39.124Z,98967.46
2022-09-01T19:36:11.371Z,98967.82
2022-09-01T19:38:38.968Z,98967.94
2022-09-01T19:41:16.272Z,98963.73
2022-09-01T19:43:43.553Z,98967.06
2022-09-01T19:46:23.665Z,98970.00
2022-09-01T19:49:02.413Z,98963.75
2022-09-01T19:51:38.457Z,98962.85
2022-09-01T19:54:28.137Z,98964.53
2022-09-01T19:57:03.385Z,98962.48
2022-09-01T19:59:53.193Z,98963.81
2022-09-01T20:02:24.969Z,98969.06
2022-09-01T20:05:15.109Z,98967.14
2022-09-01T20:07:59.580Z,98967.27
2022-09-01T20:10:51.644Z,98968.20
2022-09-01T20:13:54.598Z,98971.94
2022-09-01T20:16:30.161Z,98973.93
2022-09-01T20:19:04.895Z,98973.95
2022-09-01T20:21:33.238Z,98975.55
2022-09-01T20:24:08.301Z,98974.73
2022-09-01T20:27:06.685Z,98970.75
2022-09-01T20:29:56.909Z,98968.11
2022-09-01T20:32:32.063Z,98966.33
2022-09-01T20:35:07.965Z,98966.79
2022-09-01T20:37:42.572Z,98967.27
2022-09-01T20:40:17.760Z,98974.68
2022-09-01T20:43:08.578Z,98973.80
2022-09-01T20:45:35.970Z,98975.81
2022-09-01T20:48:13.019Z,98978.50
2022-09-01T20:50:47.140Z,98979.55
2022-09-01T20:53:29.317Z,98982.29
2022-09-01T20:56:02.912Z,98984.27
2022-09-01T20:58:42.474Z,98983.45
2022-09-01T21:01:13.134Z,98983.83
2022-09-01T21:03:57.043Z,98985.43
2022-09-01T21:06:48.611Z,98986.27
2022-09-01T21:09:22.121Z,98991.73
2022-09-01T21:12:10.369Z,98992.98
2022-09-01T21:14:44.312Z,98994.53
2022-09-01T21:17:28.229Z,98996.16
2022-09-01T21:20:22.119Z,98995.23
2022-09-01T21:22:50.639Z,99000.90
2022-09-01T21:25:17.639Z,99002.27
2022-09-01T21:27:51.320Z,98995.47
2022-09-01T21:30:19.733Z,98993.50
2022-09-01T21:32:47.045Z,98996.82
2022-09-01T21:35:17.542Z,98994.17
2022-09-01T21:37:44.546Z,98995.09
2022-09-01T21:40:14.181Z,98994.98
2022-09-01T21:42:44.982Z,98997.45
2022-09-01T21:45:15.443Z,98997.92
2022-09-01T21:47:44.403Z,98996.52
2022-09-01T21:50:12.964Z,99001.27
2022-09-01T21:52:39.904Z,99004.08
2022-09-01T21:55:08.230Z,99001.85
2022-09-01T21:57:36.661Z,99001.14
2022-09-01T22:00:08.816Z,98998.06
2022-09-01T22:02:42.597Z,98997.52
2022-09-01T22:05:10.129Z,99002.67
2022-09-01T22:07:42.412Z,99001.48
2022-09-01T22:10:13.830Z,98999.64
2022-09-01T22:12:44.191Z,99006.66
2022-09-01T22:15:19.589Z,99003.98
2022-09-01T22:17:47.528Z,99004.21
2022-09-01T22:20:25.771Z,99005.66
2022-09-01T22:22:54.822Z,99011.98
2022-09-01T22:25:23.994Z,99010.41
2022-09-01T22:27:51.201Z,99010.93
2022-09-01T22:30:19.352Z,99006.63
2022-09-01T22:32:47.956Z,99010.58
2022-09-01T22:35:16.836Z,99010.93
2022-09-01T22:37:43.807Z,99010.14
2022-09-01T22:40:12.285Z,99014.14
2022-09-01T22:42:39.369Z,99012.86
2022-09-01T22:45:08.225Z,99013.06
2022-09-01T22:47:38.253Z,99016.27
2022-09-01T22:50:08.068Z,99016.36
2022-09-01T22:52:36.428Z,99017.85
2022-09-01T22:55:04.270Z,99018.39
2022-09-01T22:57:31.562Z,99019.74
2022-09-01T22:59:58.422Z,99019.48
2022-09-01T23:02:25.343Z,99016.08
2022-09-01T23:04:52.965Z,99012.81
2022-09-01T23:07:19.790Z,99007.07
2022-09-01T23:09:46.614Z,99005.70
2022-09-01T23:12:13.740Z,99004.09
2022-09-01T23:14:41.638Z,99004.91
2022-09-01T23:17:08.619Z,99000.86
2022-09-01T23:19:35.500Z,99003.98
2022-09-01T23:22:03.318Z,99005.80
2022-09-01T23:24:30.360Z,99005.86
2022-09-01T23:26:57.443Z,99006.04
2022-09-01T23:29:25.527Z,99009.30
2022-09-01T23:31:52.548Z,99009.81
2022-09-01T23:34:19.673Z,99011.25
2022-09-01T23:36:46.929Z,99008.33
2022-09-01T23:39:13.866Z,99007.55
2022-09-01T23:41:41.642Z,99006.12
2022-09-01T23:44:11.163Z,99003.76
2022-09-01T23:46:41.967Z,99003.77
2022-09-01T23:49:09.674Z,99000.36
2022-09-01T23:51:36.904Z,99002.60
2022-09-01T23:54:03.862Z,99000.80
2022-09-01T23:56:31.064Z,98997.27
2022-09-01T23:58:59.375Z,98998.11
